Flight Briefing for CPX789

Departure Arrival
Changi International Airport (WSSS)
Click to view FAA NOTAMS
Incheon International Airport (RKSI)
Click to view FAA NOTAMS
Departure Time Arrival Time
N/A N/A
Aircraft Distance
B747-400BCF 2501nm
Departure METAR Arrival METAR
WSSS 221230Z 07005KT 9999 FEW018 BKN300 29/24 Q1009 NOSIG RKSI 221230Z 33015KT CAVOK 04/M08 Q1022 NOSIG
Suggested Route
TOMAN2A TOMAN L625 MEVIN B462 MJC IKEMA Y62 YURIX Y27 RUSAR Y579 CJU B576 OLMEN OLMEN1P


View recent IFR Routes data
Notes



Charts and Procedures

Charts for WSSS
No chart available
Charts for RKSI
No chart available

Windy.com Weather Map